createdAt,value
2022-10-04T00:01:58.305Z,13.70
2022-10-04T00:04:26.240Z,13.70
2022-10-04T00:07:13.701Z,13.70
2022-10-04T00:10:15.889Z,13.60
2022-10-04T00:12:50.652Z,13.60
2022-10-04T00:15:27.202Z,13.60
2022-10-04T00:18:12.439Z,13.50
2022-10-04T00:20:53.116Z,13.50
2022-10-04T00:23:23.555Z,13.40
2022-10-04T00:25:57.358Z,13.40
2022-10-04T00:28:28.429Z,13.40
2022-10-04T00:31:19.529Z,13.40
2022-10-04T00:33:47.099Z,13.40
2022-10-04T00:36:26.515Z,13.30
2022-10-04T00:39:09.025Z,13.30
2022-10-04T00:41:48.500Z,13.40
2022-10-04T00:44:27.373Z,13.40
2022-10-04T00:46:57.293Z,13.40
2022-10-04T00:49:32.123Z,13.50
2022-10-04T00:52:12.119Z,13.50
2022-10-04T00:54:44.471Z,13.50
2022-10-04T00:57:24.486Z,13.60
2022-10-04T01:00:03.794Z,13.70
2022-10-04T01:02:47.829Z,13.70
2022-10-04T01:05:20.054Z,13.80
2022-10-04T01:08:05.275Z,13.80
2022-10-04T01:10:43.296Z,13.90
2022-10-04T01:13:20.926Z,13.90
2022-10-04T01:15:54.703Z,14.00
2022-10-04T01:18:22.050Z,14.00
2022-10-04T01:20:57.796Z,14.10
2022-10-04T01:23:35.415Z,14.10
2022-10-04T01:26:05.723Z,14.10
2022-10-04T01:28:34.803Z,14.10
2022-10-04T01:31:02.581Z,14.10
2022-10-04T01:33:31.036Z,14.10
2022-10-04T01:35:58.389Z,14.20
2022-10-04T01:38:25.701Z,14.20
2022-10-04T01:41:00.346Z,14.20
2022-10-04T01:43:33.897Z,14.20
2022-10-04T01:46:09.127Z,14.20
2022-10-04T01:48:38.178Z,14.30
2022-10-04T01:51:13.076Z,14.30
2022-10-04T01:53:51.451Z,14.30
2022-10-04T01:56:25.753Z,14.30
2022-10-04T01:58:59.371Z,14.30
2022-10-04T02:01:45.691Z,14.30
2022-10-04T02:04:28.351Z,14.30
2022-10-04T02:06:59.129Z,14.30
2022-10-04T02:09:32.034Z,14.30
2022-10-04T02:12:00.256Z,14.30
2022-10-04T02:14:32.163Z,14.40
2022-10-04T02:17:07.971Z,14.40
2022-10-04T02:19:41.218Z,14.40
2022-10-04T02:22:10.845Z,14.50
2022-10-04T02:24:43.834Z,14.40
2022-10-04T02:27:12.191Z,14.40
2022-10-04T02:29:39.461Z,14.40
2022-10-04T02:32:27.265Z,14.40
2022-10-04T02:34:56.575Z,14.40
2022-10-04T02:37:26.150Z,14.40
2022-10-04T02:40:00.594Z,14.40
2022-10-04T02:43:07.223Z,14.40
2022-10-04T02:46:10.969Z,14.40
2022-10-04T02:48:46.762Z,14.40
2022-10-04T02:51:46.385Z,14.40
2022-10-04T02:54:37.108Z,14.40
2022-10-04T02:57:05.578Z,14.40
2022-10-04T02:59:35.477Z,14.40
2022-10-04T03:02:03.118Z,14.40
2022-10-04T03:04:40.656Z,14.40
2022-10-04T03:07:09.196Z,14.40
2022-10-04T03:09:37.743Z,14.40
2022-10-04T03:12:06.174Z,14.40
2022-10-04T03:14:34.275Z,14.40
2022-10-04T03:17:06.268Z,14.40
2022-10-04T03:19:35.470Z,14.40
2022-10-04T03:22:08.515Z,14.40
2022-10-04T03:24:50.038Z,14.40
2022-10-04T03:27:26.716Z,14.40
2022-10-04T03:29:59.018Z,14.40
2022-10-04T03:32:30.397Z,14.40
2022-10-04T03:35:00.751Z,14.40
2022-10-04T03:37:31.371Z,14.40
2022-10-04T03:39:59.826Z,14.40
2022-10-04T03:42:34.212Z,14.40
2022-10-04T03:45:06.266Z,14.40
2022-10-04T03:47:38.011Z,14.40
2022-10-04T03:50:11.556Z,14.40
2022-10-04T03:52:41.055Z,14.40
2022-10-04T03:55:10.884Z,14.40
2022-10-04T03:57:38.570Z,14.40
2022-10-04T04:00:07.043Z,14.40
2022-10-04T04:02:50.101Z,14.40
2022-10-04T04:05:24.324Z,14.40
2022-10-04T04:08:10.008Z,14.40
2022-10-04T04:10:46.496Z,14.40
2022-10-04T04:13:24.530Z,14.40
2022-10-04T04:15:55.239Z,14.40
2022-10-04T04:18:25.024Z,14.40
2022-10-04T04:20:58.964Z,14.40
2022-10-04T04:23:48.728Z,14.40
2022-10-04T04:26:31.520Z,14.40
2022-10-04T04:29:09.373Z,14.40
2022-10-04T04:31:53.523Z,14.40
2022-10-04T04:34:31.057Z,14.40
2022-10-04T04:37:04.043Z,14.40
2022-10-04T04:39:43.765Z,14.40
2022-10-04T04:42:11.091Z,14.40
2022-10-04T04:44:53.675Z,14.40
2022-10-04T04:47:33.870Z,14.40
2022-10-04T04:50:19.734Z,14.40
2022-10-04T04:53:12.833Z,14.40
2022-10-04T04:56:02.196Z,14.40
2022-10-04T04:58:36.901Z,14.40
2022-10-04T05:01:07.129Z,14.40
2022-10-04T05:03:34.890Z,14.40
2022-10-04T05:06:05.032Z,14.40
2022-10-04T05:08:38.737Z,14.40
2022-10-04T05:11:08.683Z,14.40
2022-10-04T05:14:02.122Z,14.40
2022-10-04T05:16:51.353Z,14.40
2022-10-04T05:19:35.456Z,14.40
2022-10-04T05:22:14.779Z,14.40
2022-10-04T05:24:44.722Z,14.50
2022-10-04T05:27:32.102Z,14.40
2022-10-04T05:30:21.171Z,14.50
2022-10-04T05:33:02.060Z,14.50
2022-10-04T05:35:38.616Z,14.50
2022-10-04T05:38:37.850Z,14.50
2022-10-04T05:41:42.250Z,14.50
2022-10-04T05:44:31.270Z,14.60
2022-10-04T05:47:05.518Z,14.60
2022-10-04T05:49:44.204Z,14.70
2022-10-04T05:52:36.335Z,14.70
2022-10-04T05:55:16.257Z,14.70
2022-10-04T05:58:18.488Z,14.70
2022-10-04T06:01:17.740Z,14.80
2022-10-04T06:04:03.155Z,14.80
2022-10-04T06:06:45.723Z,14.90
2022-10-04T06:09:31.124Z,14.90
2022-10-04T06:12:26.478Z,14.90
2022-10-04T06:15:03.354Z,15.00
2022-10-04T06:17:48.918Z,15.00
2022-10-04T06:20:35.053Z,15.10
2022-10-04T06:23:11.968Z,15.20
2022-10-04T06:25:50.509Z,15.10
2022-10-04T06:28:29.496Z,15.20
2022-10-04T06:31:11.052Z,15.20
2022-10-04T06:33:48.869Z,15.30
2022-10-04T06:36:25.993Z,15.30
2022-10-04T06:39:10.887Z,15.40
2022-10-04T06:41:44.390Z,15.40
2022-10-04T06:44:25.834Z,15.40
2022-10-04T06:47:21.996Z,15.50
2022-10-04T06:50:00.342Z,15.50
2022-10-04T06:52:38.761Z,15.60
2022-10-04T06:55:23.474Z,15.70
2022-10-04T06:58:12.792Z,15.70
2022-10-04T07:01:19.035Z,15.80
2022-10-04T07:03:51.758Z,15.80
2022-10-04T07:06:25.911Z,15.90
2022-10-04T07:08:59.526Z,15.90
2022-10-04T07:12:08.392Z,15.90
2022-10-04T07:14:43.377Z,15.90
2022-10-04T07:17:15.638Z,15.90
2022-10-04T07:19:47.294Z,15.90
2022-10-04T07:22:31.197Z,15.90
2022-10-04T07:25:16.579Z,15.90
2022-10-04T07:28:26.509Z,16.00
2022-10-04T07:31:23.085Z,16.10
2022-10-04T07:33:55.040Z,16.30
2022-10-04T07:36:28.555Z,16.40
2022-10-04T07:39:11.165Z,16.60
2022-10-04T07:41:47.974Z,16.70
2022-10-04T07:44:22.781Z,16.70
2022-10-04T07:47:05.538Z,16.80
2022-10-04T07:49:39.362Z,16.90
2022-10-04T07:52:41.265Z,17.00
2022-10-04T07:55:33.045Z,17.10
2022-10-04T07:58:32.155Z,17.10
2022-10-04T08:01:14.001Z,17.30
2022-10-04T08:04:18.623Z,17.20
2022-10-04T08:06:56.336Z,17.20
2022-10-04T08:09:29.264Z,17.30
2022-10-04T08:12:05.527Z,17.40
2022-10-04T08:14:46.251Z,17.40
2022-10-04T08:17:52.072Z,17.50
2022-10-04T08:20:40.856Z,17.50
2022-10-04T08:23:27.524Z,17.60
2022-10-04T08:26:00.480Z,17.70
2022-10-04T08:29:04.674Z,17.70
2022-10-04T08:31:54.282Z,17.80
2022-10-04T08:34:40.540Z,17.80
2022-10-04T08:37:30.830Z,17.80
2022-10-04T08:40:33.261Z,17.90
2022-10-04T08:43:24.478Z,18.00
2022-10-04T08:46:22.730Z,18.20
2022-10-04T08:49:08.057Z,18.30
2022-10-04T08:51:51.384Z,18.20
2022-10-04T08:54:27.888Z,18.20
2022-10-04T08:57:16.335Z,18.40
2022-10-04T09:00:04.437Z,18.50
2022-10-04T09:02:54.001Z,18.60
2022-10-04T09:05:42.205Z,18.70
2022-10-04T09:08:46.676Z,18.60
2022-10-04T09:11:41.755Z,18.50
2022-10-04T09:14:33.608Z,18.60
2022-10-04T09:17:22.991Z,18.60
2022-10-04T09:20:09.112Z,18.70
2022-10-04T09:23:20.836Z,18.80
2022-10-04T09:26:06.528Z,18.80
2022-10-04T09:28:55.492Z,18.80
2022-10-04T09:31:40.945Z,18.80
2022-10-04T09:34:45.223Z,18.80
2022-10-04T09:37:32.698Z,18.90
2022-10-04T09:40:34.334Z,19.00
2022-10-04T09:43:07.804Z,19.00
2022-10-04T09:45:48.611Z,19.00
2022-10-04T09:48:33.968Z,19.10
2022-10-04T09:51:26.012Z,19.20
2022-10-04T09:54:15.658Z,19.20
2022-10-04T09:56:59.184Z,19.30
2022-10-04T09:59:53.919Z,19.30
2022-10-04T10:02:59.222Z,19.30
2022-10-04T10:05:35.192Z,19.30
2022-10-04T10:08:36.128Z,19.40
2022-10-04T10:11:46.563Z,19.70
2022-10-04T10:14:51.912Z,19.60
2022-10-04T10:17:51.310Z,19.40
2022-10-04T10:21:00.636Z,19.60
2022-10-04T10:23:50.254Z,19.50
2022-10-04T10:26:41.846Z,19.60
2022-10-04T10:29:15.848Z,19.70
2022-10-04T10:32:21.579Z,19.80
2022-10-04T10:35:10.678Z,19.90
2022-10-04T10:38:04.269Z,20.00
2022-10-04T10:40:59.936Z,20.20
2022-10-04T10:43:38.404Z,20.50
2022-10-04T10:46:27.649Z,20.60
2022-10-04T10:49:10.019Z,20.60
2022-10-04T10:52:01.246Z,20.70
2022-10-04T10:54:37.493Z,20.80
2022-10-04T10:57:23.660Z,20.80
2022-10-04T11:00:17.355Z,20.70
2022-10-04T11:02:51.511Z,20.70
2022-10-04T11:05:38.896Z,20.90
2022-10-04T11:08:43.987Z,21.00
2022-10-04T11:11:23.312Z,21.00
2022-10-04T11:14:02.135Z,21.00
2022-10-04T11:16:47.749Z,21.10
2022-10-04T11:19:29.207Z,21.00
2022-10-04T11:22:47.241Z,21.10
2022-10-04T11:25:35.040Z,21.30
2022-10-04T11:28:08.159Z,21.40
2022-10-04T11:31:13.085Z,21.50
2022-10-04T11:34:29.573Z,21.60
2022-10-04T11:37:36.547Z,21.60
2022-10-04T11:40:24.687Z,21.50
2022-10-04T11:43:26.941Z,21.40
2022-10-04T11:46:08.492Z,21.10
2022-10-04T11:49:05.107Z,20.90
2022-10-04T11:51:32.449Z,20.90
2022-10-04T11:54:09.669Z,20.80
2022-10-04T11:57:04.178Z,20.70
2022-10-04T11:59:55.647Z,20.70
2022-10-04T12:02:50.260Z,20.80
2022-10-04T12:05:33.571Z,20.70
2022-10-04T12:08:18.931Z,20.60
2022-10-04T12:11:13.837Z,20.60
2022-10-04T12:13:47.279Z,20.50
2022-10-04T12:16:45.914Z,20.70
2022-10-04T12:19:37.543Z,20.80
2022-10-04T12:22:25.762Z,20.90
2022-10-04T12:24:59.456Z,20.90
2022-10-04T12:28:11.250Z,20.70
2022-10-04T12:31:03.809Z,20.60
2022-10-04T12:33:46.091Z,20.70
2022-10-04T12:36:31.920Z,20.80
2022-10-04T12:39:17.775Z,20.80
2022-10-04T12:42:11.731Z,20.70
2022-10-04T12:45:20.069Z,20.80
2022-10-04T12:48:05.714Z,20.90
2022-10-04T12:50:45.651Z,21.00
2022-10-04T12:53:23.649Z,21.20
2022-10-04T12:56:21.544Z,21.30
2022-10-04T12:59:06.885Z,21.20
2022-10-04T13:01:40.266Z,21.10
2022-10-04T13:04:31.720Z,20.90
2022-10-04T13:07:02.100Z,20.90
2022-10-04T13:10:23.051Z,20.80
2022-10-04T13:13:05.302Z,20.80
2022-10-04T13:18:59.863Z,20.60
2022-10-04T13:21:39.112Z,20.60
2022-10-04T13:24:59.540Z,20.60
2022-10-04T13:27:50.621Z,20.70
2022-10-04T13:30:24.303Z,20.90
2022-10-04T13:33:14.097Z,21.10
2022-10-04T13:36:08.782Z,21.10
2022-10-04T13:39:07.160Z,21.00
2022-10-04T13:42:15.365Z,20.70
2022-10-04T13:45:12.971Z,20.60
2022-10-04T13:47:59.450Z,20.50
2022-10-04T13:50:45.896Z,20.30
2022-10-04T13:54:09.939Z,20.20
2022-10-04T13:57:04.474Z,20.20
2022-10-04T13:59:37.645Z,20.10
2022-10-04T14:02:23.171Z,20.10
2022-10-04T14:04:53.194Z,20.30
2022-10-04T14:07:38.956Z,20.50
2022-10-04T14:10:38.578Z,20.70
2022-10-04T14:13:38.689Z,20.70
2022-10-04T14:16:09.125Z,20.60
2022-10-04T14:18:45.603Z,20.60
2022-10-04T14:21:43.813Z,20.50
2022-10-04T14:24:33.260Z,20.50
2022-10-04T14:27:13.203Z,20.70
2022-10-04T14:30:08.274Z,20.90
2022-10-04T14:32:52.041Z,21.00
2022-10-04T14:35:35.632Z,21.10
2022-10-04T14:38:38.506Z,21.00
2022-10-04T14:41:17.658Z,21.00
2022-10-04T14:44:00.575Z,21.00
2022-10-04T14:46:45.853Z,20.90
2022-10-04T14:49:44.212Z,20.90
2022-10-04T14:52:18.254Z,20.80
2022-10-04T14:55:03.975Z,20.80
2022-10-04T14:58:10.055Z,20.80
2022-10-04T15:01:06.186Z,20.70
2022-10-04T15:03:52.613Z,20.60
2022-10-04T15:06:26.520Z,20.60
2022-10-04T15:09:07.068Z,20.60
2022-10-04T15:11:44.251Z,20.60
2022-10-04T15:14:34.176Z,20.70
2022-10-04T15:17:11.447Z,20.70
2022-10-04T15:20:06.445Z,20.60
2022-10-04T15:22:53.167Z,20.50
2022-10-04T15:25:41.454Z,20.20
2022-10-04T15:28:35.897Z,20.10
2022-10-04T15:31:12.649Z,20.00
2022-10-04T15:34:18.871Z,19.80
2022-10-04T15:36:57.936Z,19.70
2022-10-04T15:39:58.166Z,19.50
2022-10-04T15:42:41.874Z,19.40
2022-10-04T15:45:18.026Z,19.30
2022-10-04T15:48:11.209Z,19.30
2022-10-04T15:51:11.233Z,19.10
2022-10-04T15:54:16.465Z,19.00
2022-10-04T15:56:49.715Z,18.90
2022-10-04T15:59:29.911Z,18.80
2022-10-04T16:02:34.693Z,18.70
2022-10-04T16:05:41.662Z,18.70
2022-10-04T16:08:26.767Z,18.60
2022-10-04T16:11:16.624Z,18.50
2022-10-04T16:13:56.829Z,18.40
2022-10-04T16:16:39.973Z,18.30
2022-10-04T16:19:44.838Z,18.30
2022-10-04T16:22:20.134Z,18.20
2022-10-04T16:25:16.286Z,18.00
2022-10-04T16:28:09.275Z,17.90
2022-10-04T16:31:08.567Z,17.80
2022-10-04T16:33:43.672Z,17.60
2022-10-04T16:36:20.445Z,17.50
2022-10-04T16:39:10.878Z,17.40
2022-10-04T16:41:44.462Z,17.30
2022-10-04T16:44:46.441Z,17.20
2022-10-04T16:47:56.710Z,17.10
2022-10-04T16:51:00.500Z,17.00
2022-10-04T16:53:39.818Z,16.80
2022-10-04T16:56:20.011Z,16.70
2022-10-04T16:59:03.131Z,16.60
2022-10-04T17:02:08.167Z,16.60
2022-10-04T17:04:41.323Z,16.50
2022-10-04T17:07:30.535Z,16.40
2022-10-04T17:10:21.317Z,16.30
2022-10-04T17:12:58.614Z,16.20
2022-10-04T17:15:49.066Z,16.10
2022-10-04T17:18:44.698Z,16.00
2022-10-04T17:21:46.094Z,15.90
2022-10-04T17:24:22.451Z,15.80
2022-10-04T17:27:26.223Z,15.70
2022-10-04T17:30:14.141Z,15.70
2022-10-04T17:32:45.765Z,15.60
2022-10-04T17:35:37.889Z,15.60
2022-10-04T17:38:25.044Z,15.60
2022-10-04T17:41:27.314Z,15.50
2022-10-04T17:44:14.247Z,15.50
2022-10-04T17:47:54.354Z,15.40
2022-10-04T17:51:08.576Z,15.30
2022-10-04T17:54:00.221Z,15.30
2022-10-04T17:56:51.811Z,15.20
2022-10-04T17:59:31.097Z,15.10
2022-10-04T18:02:10.349Z,15.00
2022-10-04T18:04:50.530Z,14.90
2022-10-04T18:07:23.155Z,14.80
2022-10-04T18:10:02.332Z,14.70
2022-10-04T18:12:44.951Z,14.60
2022-10-04T18:15:28.722Z,14.60
2022-10-04T18:18:14.667Z,14.50
2022-10-04T18:20:54.065Z,14.40
2022-10-04T18:23:28.181Z,14.20
2022-10-04T18:25:59.704Z,14.10
2022-10-04T18:28:27.473Z,14.10
2022-10-04T18:31:01.415Z,14.00
2022-10-04T18:33:40.538Z,14.00
2022-10-04T18:36:20.999Z,14.00
2022-10-04T18:39:06.271Z,14.00
2022-10-04T18:42:01.295Z,14.00
2022-10-04T18:44:44.037Z,13.90
2022-10-04T18:47:21.139Z,13.90
2022-10-04T18:49:51.828Z,13.80
2022-10-04T18:52:47.742Z,13.80
2022-10-04T18:55:26.576Z,13.70
2022-10-04T18:58:36.089Z,13.70
2022-10-04T19:01:52.281Z,13.70
2022-10-04T19:04:26.873Z,13.60
2022-10-04T19:07:03.199Z,13.50
2022-10-04T19:09:51.424Z,13.40
2022-10-04T19:12:43.475Z,13.40
2022-10-04T19:15:39.499Z,13.30
2022-10-04T19:18:18.780Z,13.30
2022-10-04T19:20:58.359Z,13.30
2022-10-04T19:23:50.733Z,13.30
2022-10-04T19:26:50.840Z,13.30
2022-10-04T19:29:43.055Z,13.20
2022-10-04T19:32:13.706Z,13.10
2022-10-04T19:35:03.927Z,13.00
2022-10-04T19:38:21.490Z,12.80
2022-10-04T19:40:57.916Z,12.70
2022-10-04T19:43:47.598Z,12.70
2022-10-04T19:46:41.962Z,12.70
2022-10-04T19:49:31.838Z,12.70
2022-10-04T19:52:26.494Z,12.70
2022-10-04T19:55:03.343Z,12.70
2022-10-04T19:57:38.159Z,12.70
2022-10-04T20:00:16.901Z,12.60
2022-10-04T20:02:48.390Z,12.60
2022-10-04T20:05:24.874Z,12.60
2022-10-04T20:08:01.217Z,12.50
2022-10-04T20:10:37.213Z,12.60
2022-10-04T20:13:10.826Z,12.50
2022-10-04T20:15:38.615Z,12.40
2022-10-04T20:18:33.919Z,12.50
2022-10-04T20:21:01.428Z,12.40
2022-10-04T20:23:38.320Z,12.40
2022-10-04T20:26:53.036Z,12.40
2022-10-04T20:29:39.437Z,12.30
2022-10-04T20:32:08.951Z,12.30
2022-10-04T20:34:39.272Z,12.20
2022-10-04T20:37:10.399Z,12.10
2022-10-04T20:39:40.765Z,12.10
2022-10-04T20:42:25.258Z,12.10
2022-10-04T20:45:21.032Z,12.00
2022-10-04T20:47:52.254Z,12.00
2022-10-04T20:50:39.839Z,11.90
2022-10-04T20:53:18.615Z,11.90
2022-10-04T20:55:46.760Z,11.90
2022-10-04T20:58:35.035Z,11.90
2022-10-04T21:01:16.704Z,11.90
2022-10-04T21:03:44.339Z,11.90
2022-10-04T21:06:12.131Z,11.80
2022-10-04T21:08:41.056Z,11.80
2022-10-04T21:11:21.045Z,11.80
2022-10-04T21:13:52.211Z,11.80
2022-10-04T21:16:41.617Z,11.80
2022-10-04T21:19:34.400Z,11.70
2022-10-04T21:22:10.012Z,11.70
2022-10-04T21:24:49.477Z,11.70
2022-10-04T21:27:25.989Z,11.70
2022-10-04T21:29:53.793Z,11.60
2022-10-04T21:32:22.305Z,11.60
2022-10-04T21:34:54.389Z,11.60
2022-10-04T21:37:22.145Z,11.60
2022-10-04T21:39:49.528Z,11.50
2022-10-04T21:42:17.377Z,11.50
2022-10-04T21:44:44.618Z,11.50
2022-10-04T21:47:11.876Z,11.40
2022-10-04T21:49:39.607Z,11.40
2022-10-04T21:52:07.142Z,11.40
2022-10-04T21:54:35.357Z,11.40
2022-10-04T21:57:02.648Z,11.40
2022-10-04T21:59:30.004Z,11.40
2022-10-04T22:01:57.429Z,11.40
2022-10-04T22:04:24.714Z,11.40
2022-10-04T22:06:51.972Z,11.40
2022-10-04T22:09:19.209Z,11.40
2022-10-04T22:11:46.466Z,11.30
2022-10-04T22:14:13.705Z,11.30
2022-10-04T22:16:41.149Z,11.30
2022-10-04T22:19:08.618Z,11.30
2022-10-04T22:21:35.948Z,11.20
2022-10-04T22:24:04.292Z,11.20
2022-10-04T22:26:32.048Z,11.10
2022-10-04T22:28:59.324Z,11.00
2022-10-04T22:31:28.929Z,11.00
2022-10-04T22:33:57.025Z,11.00
2022-10-04T22:36:26.969Z,10.90
2022-10-04T22:38:59.601Z,10.90
2022-10-04T22:41:29.962Z,10.90
2022-10-04T22:43:59.668Z,10.90
2022-10-04T22:46:36.053Z,10.80
2022-10-04T22:49:13.138Z,10.80
2022-10-04T22:51:42.195Z,10.80
2022-10-04T22:54:15.706Z,10.80
2022-10-04T22:56:43.187Z,10.80
2022-10-04T22:59:12.913Z,10.80
2022-10-04T23:01:40.561Z,10.80
2022-10-04T23:04:21.852Z,10.80
2022-10-04T23:06:51.011Z,10.80
2022-10-04T23:09:18.985Z,10.80
2022-10-04T23:11:46.597Z,10.70
2022-10-04T23:14:13.953Z,10.70
2022-10-04T23:16:41.656Z,10.70
2022-10-04T23:19:08.830Z,10.70
2022-10-04T23:21:39.024Z,10.70
2022-10-04T23:24:22.377Z,10.70
2022-10-04T23:26:55.380Z,10.70
2022-10-04T23:29:27.957Z,10.60
2022-10-04T23:31:56.867Z,10.60
2022-10-04T23:34:55.683Z,10.50
2022-10-04T23:37:27.301Z,10.50
2022-10-04T23:39:54.527Z,10.50
2022-10-04T23:42:36.724Z,10.50
2022-10-04T23:45:15.892Z,10.50
2022-10-04T23:47:43.393Z,10.50
2022-10-04T23:50:29.879Z,10.40
2022-10-04T23:53:04.318Z,10.40
2022-10-04T23:55:38.546Z,10.30
2022-10-04T23:58:28.497Z,10.30
